臺北飛航情報區 - 海峽席

METAR RCTP 021930Z 09004KT 9999 FEW012 12/08 Q1022 NOSIG RMK A3018=

站台狀態:Online
最後更新:2021-12-03 03:30:01